^^
Grace C. Lehan Memorial Weather Station Historical Data
Daily Summary for March 31, 2022 Units:  Both    English   Metric
Daily Weekly Monthly Yearly
  High: Low: Average:
Temperature: 22.1 °F /  -5.5 °C 6.2 °F /  -14.3 °C 11.8 °F /  -11.2 °C
Dew Point: 10.1 °F /  -12.2 °C 1 °F /  -17.2 °C 4.3 °F /  -15.4 °C
Humidity: 81.9% 56.8% 72%
Wind Speed: 0.8mph /  1.3km/h - 0mph /  0km/h
Wind Gust: 3mph /  4.8km/h - -
Wind- - SSW
Pressure: 30.36 in /  1028 hPa 30.17 in /  1021.6 hPa -
Precipitation: 0.00 in /  0 mm    
 
 
Tabular Data for March 31, 2022
Time Temperature Dew Point Pressure Wind Wind Speed Wind Gust Humidity Rainfall Rate (Hourly) solar
00:04 15.6 °F /  -9.1 °C 5.4 °F /  -14.8 °C 30.17in /  1021.6hPa Calm     63.5% 0.00in /  0mm 0 W/m2
00:09 15.8 °F /  -9 °C 5.1 °F /  -14.9 °C 30.17in /  1021.6hPa Calm     62.1% 0.00in /  0mm 0 W/m2
00:14 15.9 °F /  -8.9 °C 5 °F /  -15 °C 30.17in /  1021.6hPa Calm     61.3% 0.00in /  0mm 0 W/m2
00:19 16 °F /  -8.9 °C 5.3 °F /  -14.8 °C 30.17in /  1021.6hPa Calm     62% 0.00in /  0mm 0 W/m2
00:24 16 °F /  -8.9 °C 5.3 °F /  -14.8 °C 30.18in /  1021.9hPa Calm     62% 0.00in /  0mm 0 W/m2
00:29 15.9 °F /  -8.9 °C 5.1 °F /  -14.9 °C 30.17in /  1021.6hPa Calm     61.6% 0.00in /  0mm 0 W/m2
00:34 15.9 °F /  -8.9 °C 4.8 °F /  -15.1 °C 30.17in /  1021.6hPa Calm     61% 0.00in /  0mm 0 W/m2
00:39 15.8 °F /  -9 °C 4.8 °F /  -15.1 °C 30.18in /  1021.9hPa Calm     61% 0.00in /  0mm 0 W/m2
00:44 15.7 °F /  -9.1 °C 5.1 °F /  -14.9 °C 30.18in /  1021.9hPa Calm     62.2% 0.00in /  0mm 0 W/m2
00:49 15.6 °F /  -9.1 °C 5.5 °F /  -14.7 °C 30.17in /  1021.6hPa Calm     63.7% 0.00in /  0mm 0 W/m2
00:54 15.5 °F /  -9.2 °C 5.5 °F /  -14.7 °C 30.17in /  1021.6hPa Calm     64% 0.00in /  0mm 0 W/m2
00:59 15.3 °F /  -9.3 °C 5.7 °F /  -14.6 °C 30.17in /  1021.6hPa Calm     64.9% 0.00in /  0mm 0 W/m2
01:04 15.1 °F /  -9.4 °C 5.6 °F /  -14.7 °C 30.17in /  1021.6hPa Calm     65.3% 0.00in /  0mm 0 W/m2
01:09 14.9 °F /  -9.5 °C 5.8 °F /  -14.6 °C 30.17in /  1021.6hPa Calm     66.5% 0.00in /  0mm 0 W/m2
01:14 14.6 °F /  -9.7 °C 5.7 °F /  -14.6 °C 30.18in /  1021.9hPa Calm     67% 0.00in /  0mm 0 W/m2
01:19 14.3 °F /  -9.8 °C 5.4 °F /  -14.8 °C 30.18in /  1021.9hPa Calm     67% 0.00in /  0mm 0 W/m2
01:24 14 °F /  -10 °C 5.1 °F /  -14.9 °C 30.18in /  1021.9hPa Calm     67% 0.00in /  0mm 0 W/m2
01:29 13.8 °F /  -10.1 °C 4.9 °F /  -15.1 °C 30.18in /  1021.9hPa Calm     67% 0.00in /  0mm 0 W/m2
01:34 13.7 °F /  -10.2 °C 4.8 °F /  -15.1 °C 30.18in /  1021.9hPa Calm     67% 0.00in /  0mm 0 W/m2
01:39 13.7 °F /  -10.2 °C 4.8 °F /  -15.1 °C 30.18in /  1021.9hPa Calm     67% 0.00in /  0mm 0 W/m2
01:44 13.6 °F /  -10.2 °C 4.6 °F /  -15.2 °C 30.19in /  1022.2hPa Calm     66.6% 0.00in /  0mm 0 W/m2
01:49 13.5 °F /  -10.3 °C 4.4 °F /  -15.3 °C 30.19in /  1022.2hPa Calm     66.5% 0.00in /  0mm 0 W/m2
01:54 13.3 °F /  -10.4 °C 4.4 °F /  -15.3 °C 30.19in /  1022.2hPa Calm     67% 0.00in /  0mm 0 W/m2
01:59 13.1 °F /  -10.5 °C 4.4 °F /  -15.3 °C 30.19in /  1022.2hPa Calm     67.6% 0.00in /  0mm 0 W/m2
02:04 12.8 °F /  -10.7 °C 4.2 °F /  -15.4 °C 30.20in /  1022.6hPa Calm     68% 0.00in /  0mm 0 W/m2
02:09 12.6 °F /  -10.8 °C 4.3 °F /  -15.4 °C 30.20in /  1022.6hPa Calm     68.9% 0.00in /  0mm 0 W/m2
02:14 12.4 °F /  -10.9 °C 4.2 °F /  -15.4 °C 30.20in /  1022.6hPa Calm     69% 0.00in /  0mm 0 W/m2
02:19 12.3 °F /  -10.9 °C 4.1 °F /  -15.5 °C 30.20in /  1022.6hPa Calm     69% 0.00in /  0mm 0 W/m2
02:24 12.2 °F /  -11 °C 4 °F /  -15.6 °C 30.20in /  1022.6hPa Calm     69% 0.00in /  0mm 0 W/m2
02:29 11.8 °F /  -11.2 °C 3.8 °F /  -15.7 °C 30.20in /  1022.6hPa Calm     69.7% 0.00in /  0mm 0 W/m2
02:34 11.5 °F /  -11.4 °C 3.6 °F /  -15.8 °C 30.20in /  1022.6hPa Calm     70% 0.00in /  0mm 0 W/m2
02:39 11.3 °F /  -11.5 °C 3.4 °F /  -15.9 °C 30.20in /  1022.6hPa Calm     70% 0.00in /  0mm 0 W/m2
02:44 11.2 °F /  -11.6 °C 3.3 °F /  -15.9 °C 30.20in /  1022.6hPa Calm     70% 0.00in /  0mm 0 W/m2
02:49 11 °F /  -11.7 °C 3.2 °F /  -16 °C 30.20in /  1022.6hPa Calm     70.2% 0.00in /  0mm 0 W/m2
02:54 11 °F /  -11.7 °C 3.5 °F /  -15.8 °C 30.20in /  1022.6hPa Calm     71% 0.00in /  0mm 0 W/m2
02:59 11.1 °F /  -11.6 °C 3.3 °F /  -15.9 °C 30.20in /  1022.6hPa Calm     70.4% 0.00in /  0mm 0 W/m2
03:04 11.2 °F /  -11.6 °C 3.6 °F /  -15.8 °C 30.20in /  1022.6hPa Calm     71% 0.00in /  0mm 0 W/m2
03:09 11 °F /  -11.7 °C 3.5 °F /  -15.8 °C 30.20in /  1022.6hPa Calm     71% 0.00in /  0mm 0 W/m2
03:14 10.5 °F /  -11.9 °C 3 °F /  -16.1 °C 30.21in /  1022.9hPa Calm     71% 0.00in /  0mm 0 W/m2
03:19 10.1 °F /  -12.2 °C 2.8 °F /  -16.2 °C 30.21in /  1022.9hPa Calm     71.7% 0.00in /  0mm 0 W/m2
03:24 9.8 °F /  -12.3 °C 2.6 °F /  -16.3 °C 30.21in /  1022.9hPa Calm     72% 0.00in /  0mm 0 W/m2
03:29 9.6 °F /  -12.4 °C 2.4 °F /  -16.4 °C 30.21in /  1022.9hPa Calm     72% 0.00in /  0mm 0 W/m2
03:34 9.5 °F /  -12.5 °C 2.4 °F /  -16.4 °C 30.21in /  1022.9hPa Calm     72.3% 0.00in /  0mm 0 W/m2
03:39 9.3 °F /  -12.6 °C 2.4 °F /  -16.4 °C 30.22in /  1023.2hPa Calm     73% 0.00in /  0mm 0 W/m2
03:44 9.1 °F /  -12.7 °C 2.3 °F /  -16.5 °C 30.22in /  1023.2hPa Calm     73.1% 0.00in /  0mm 0 W/m2
03:49 9 °F /  -12.8 °C 2.4 °F /  -16.4 °C 30.22in /  1023.2hPa Calm     74% 0.00in /  0mm 0 W/m2
03:54 9 °F /  -12.8 °C 2.4 °F /  -16.4 °C 30.22in /  1023.2hPa Calm     74% 0.00in /  0mm 0 W/m2
03:59 8.9 °F /  -12.8 °C 2.4 °F /  -16.4 °C 30.22in /  1023.2hPa Calm     74.2% 0.00in /  0mm 0 W/m2
04:00 8.9 °F /  -12.8 °C 2.6 °F /  -16.3 °C 30.22in /  1023.2hPa Calm     75% 0.00in /  0mm 0 W/m2
04:09 8.9 °F /  -12.8 °C 2.5 °F /  -16.4 °C 30.22in /  1023.2hPa Calm     74.5% 0.00in /  0mm 0 W/m2
04:14 8.9 °F /  -12.8 °C 2.5 °F /  -16.4 °C 30.22in /  1023.2hPa Calm     74.5% 0.00in /  0mm 0 W/m2
04:19 8.9 °F /  -12.8 °C 2.6 °F /  -16.3 °C 30.23in /  1023.6hPa Calm     74.8% 0.00in /  0mm 0 W/m2
04:24 8.9 °F /  -12.8 °C 2.5 °F /  -16.4 °C 30.23in /  1023.6hPa Calm     74.8% 0.00in /  0mm 0 W/m2
04:29 8.8 °F /  -12.9 °C 2.4 °F /  -16.4 °C 30.23in /  1023.6hPa Calm     74.6% 0.00in /  0mm 0 W/m2
04:34 8.7 °F /  -12.9 °C 2.4 °F /  -16.4 °C 30.23in /  1023.6hPa Calm     75% 0.00in /  0mm 0 W/m2
04:39 8.4 °F /  -13.1 °C 2.2 °F /  -16.6 °C 30.23in /  1023.6hPa Calm     75% 0.00in /  0mm 0 W/m2
04:44 8.1 °F /  -13.3 °C 1.9 °F /  -16.7 °C 30.24in /  1023.9hPa Calm     75.5% 0.00in /  0mm 0 W/m2
04:49 7.8 °F /  -13.4 °C 1.8 °F /  -16.8 °C 30.24in /  1023.9hPa Calm     76% 0.00in /  0mm 0 W/m2
04:54 7.7 °F /  -13.5 °C 1.7 °F /  -16.8 °C 30.24in /  1023.9hPa Calm     76% 0.00in /  0mm 0 W/m2
04:59 7.7 °F /  -13.5 °C 1.8 °F /  -16.8 °C 30.24in /  1023.9hPa Calm     76.4% 0.00in /  0mm 0 W/m2
05:04 7.7 °F /  -13.5 °C 2 °F /  -16.7 °C 30.24in /  1023.9hPa Calm     77% 0.00in /  0mm 0 W/m2
05:09 7.7 °F /  -13.5 °C 2 °F /  -16.7 °C 30.24in /  1023.9hPa Calm     77% 0.00in /  0mm 0 W/m2
05:14 7.8 °F /  -13.4 °C 2.1 °F /  -16.6 °C 30.24in /  1023.9hPa Calm     77% 0.00in /  0mm 0 W/m2
05:19 7.8 °F /  -13.4 °C 1.9 °F /  -16.7 °C 30.24in /  1023.9hPa Calm     76.6% 0.00in /  0mm 0 W/m2
05:24 7.7 °F /  -13.5 °C 2 °F /  -16.7 °C 30.24in /  1023.9hPa Calm     77% 0.00in /  0mm 0 W/m2
05:29 7.7 °F /  -13.5 °C 2 °F /  -16.7 °C 30.25in /  1024.3hPa Calm     77% 0.00in /  0mm 0 W/m2
05:34 7.7 °F /  -13.5 °C 2 °F /  -16.7 °C 30.25in /  1024.3hPa Calm     77% 0.00in /  0mm 0 W/m2
05:39 7.6 °F /  -13.6 °C 1.9 °F /  -16.7 °C 30.25in /  1024.3hPa Calm     77% 0.00in /  0mm 0 W/m2
05:44 7.4 °F /  -13.7 °C 1.8 °F /  -16.8 °C 30.25in /  1024.3hPa Calm     77% 0.00in /  0mm 0 W/m2
05:49 7.3 °F /  -13.7 °C 1.4 °F /  -17 °C 30.25in /  1024.3hPa Calm     76.1% 0.00in /  0mm 0 W/m2
05:54 7.1 °F /  -13.8 °C 1.3 °F /  -17.1 °C 30.26in /  1024.6hPa Calm     76.6% 0.00in /  0mm 0 W/m2
05:59 7 °F /  -13.9 °C 1.3 °F /  -17.1 °C 30.26in /  1024.6hPa Calm     77% 0.00in /  0mm 0 W/m2
06:04 6.9 °F /  -13.9 °C 1.2 °F /  -17.1 °C 30.27in /  1024.9hPa Calm     77% 0.00in /  0mm 0 W/m2
06:09 6.9 °F /  -13.9 °C 1.4 °F /  -17 °C 30.27in /  1024.9hPa Calm     77.6% 0.00in /  0mm 0 W/m2
06:14 6.8 °F /  -14 °C 1.5 °F /  -16.9 °C 30.27in /  1024.9hPa Calm     78% 0.00in /  0mm 0 W/m2
06:19 6.8 °F /  -14 °C 1.4 °F /  -17 °C 30.27in /  1024.9hPa Calm     78% 0.00in /  0mm 0 W/m2
06:24 6.7 °F /  -14.1 °C 1.3 °F /  -17.1 °C 30.27in /  1024.9hPa Calm     78% 0.00in /  0mm 0 W/m2
06:29 6.7 °F /  -14.1 °C 1.3 °F /  -17.1 °C 30.28in /  1025.3hPa Calm     78% 0.00in /  0mm 0 W/m2
06:34 6.6 °F /  -14.1 °C 1.4 °F /  -17 °C 30.29in /  1025.6hPa Calm     78.9% 0.00in /  0mm 0 W/m2
06:39 6.5 °F /  -14.2 °C 1.1 °F /  -17.2 °C 30.29in /  1025.6hPa Calm     78.1% 0.00in /  0mm 0 W/m2
06:44 6.3 °F /  -14.3 °C 1 °F /  -17.2 °C 30.29in /  1025.6hPa Calm     78.3% 0.00in /  0mm 0 W/m2
06:49 6.2 °F /  -14.3 °C 1.1 °F /  -17.2 °C 30.29in /  1025.6hPa Calm     79% 0.00in /  0mm 0 W/m2
06:54 6.2 °F /  -14.3 °C 1.1 °F /  -17.2 °C 30.30in /  1026hPa Calm     79% 0.00in /  0mm 0 W/m2
06:59 6.2 °F /  -14.3 °C 1.4 °F /  -17 °C 30.30in /  1026hPa Calm     80% 0.00in /  0mm 0 W/m2
07:04 6.2 °F /  -14.3 °C 1.4 °F /  -17 °C 30.30in /  1026hPa Calm     80% 0.00in /  0mm 5 W/m2
07:09 6.3 °F /  -14.3 °C 1.4 °F /  -17 °C 30.30in /  1026hPa Calm     80% 0.00in /  0mm 9 W/m2
07:14 6.3 °F /  -14.3 °C 1.3 °F /  -17.1 °C 30.30in /  1026hPa Calm     79.6% 0.00in /  0mm 14 W/m2
07:19 6.3 °F /  -14.3 °C 1.2 °F /  -17.1 °C 30.30in /  1026hPa Calm     79% 0.00in /  0mm 16 W/m2
07:24 6.4 °F /  -14.2 °C 1.3 °F /  -17.1 °C 30.30in /  1026hPa Calm     79% 0.00in /  0mm 21 W/m2
07:29 6.4 °F /  -14.2 °C 1.4 °F /  -17 °C 30.30in /  1026hPa Calm     79.5% 0.00in /  0mm 35 W/m2
07:34 6.6 °F /  -14.1 °C 1.7 °F /  -16.8 °C 30.30in /  1026hPa Calm     80% 0.00in /  0mm 53 W/m2
07:39 6.9 °F /  -13.9 °C 2.1 °F /  -16.6 °C 30.30in /  1026hPa Calm     80.3% 0.00in /  0mm 53 W/m2
07:44 7.4 °F /  -13.7 °C 2.8 °F /  -16.2 °C 30.31in /  1026.3hPa Calm     81% 0.00in /  0mm 60 W/m2
07:49 7.9 °F /  -13.4 °C 3.3 °F /  -15.9 °C 30.31in /  1026.3hPa Calm     81% 0.00in /  0mm 37 W/m2
07:54 8.3 °F /  -13.2 °C 3.7 °F /  -15.7 °C 30.31in /  1026.3hPa Calm     81% 0.00in /  0mm 47 W/m2
08:09 9.6 °F /  -12.4 °C 5.2 °F /  -14.9 °C 30.32in /  1026.6hPa Calm     81.9% 0.00in /  0mm 79 W/m2
08:14 10 °F /  -12.2 °C 5.5 °F /  -14.7 °C 30.32in /  1026.6hPa Calm     81.4% 0.00in /  0mm 91 W/m2
08:19 10.4 °F /  -12 °C 5.7 °F /  -14.6 °C 30.32in /  1026.6hPa Calm     80.9% 0.00in /  0mm 134 W/m2
08:24 10.8 °F /  -11.8 °C 5.9 °F /  -14.5 °C 30.32in /  1026.6hPa Calm     80.3% 0.00in /  0mm 134 W/m2
08:29 11.4 °F /  -11.4 °C 6.4 °F /  -14.2 °C 30.33in /  1027hPa Calm     80% 0.00in /  0mm 229 W/m2
08:34 12.3 °F /  -10.9 °C 7.3 °F /  -13.7 °C 30.33in /  1027hPa Calm     80% 0.00in /  0mm 243 W/m2
08:39 13.4 °F /  -10.3 °C 8.2 °F /  -13.2 °C 30.33in /  1027hPa NW 0.1mph /  0.2km/h 1mph /  1.6km/h 79.3% 0.00in /  0mm 246 W/m2
08:44 14.4 °F /  -9.8 °C 8.7 °F /  -12.9 °C 30.34in /  1027.3hPa NW 0.1mph /  0.2km/h 1mph /  1.6km/h 77.5% 0.00in /  0mm 297 W/m2
08:49 15.3 °F /  -9.3 °C 9.2 °F /  -12.7 °C 30.34in /  1027.3hPa Calm   1mph /  1.6km/h 76.2% 0.00in /  0mm 309 W/m2
08:54 16.3 °F /  -8.7 °C 9.7 °F /  -12.4 °C 30.34in /  1027.3hPa NW 0.4mph /  0.6km/h 2mph /  3.2km/h 74.8% 0.00in /  0mm 322 W/m2
08:59 17.1 °F /  -8.3 °C 9.9 °F /  -12.3 °C 30.34in /  1027.3hPa NNW 0.7mph /  1.1km/h 2mph /  3.2km/h 72.8% 0.00in /  0mm 350 W/m2
09:04 17.7 °F /  -7.9 °C 9.8 °F /  -12.3 °C 30.34in /  1027.3hPa NNW 0.1mph /  0.2km/h 2mph /  3.2km/h 70.7% 0.00in /  0mm 350 W/m2
09:09 18.3 °F /  -7.6 °C 9.8 °F /  -12.3 °C 30.35in /  1027.7hPa NNW 0.2mph /  0.3km/h 2mph /  3.2km/h 68.8% 0.00in /  0mm 352 W/m2
09:14 18.9 °F /  -7.3 °C 9.8 °F /  -12.3 °C 30.35in /  1027.7hPa NNW 0.2mph /  0.3km/h 2mph /  3.2km/h 67.1% 0.00in /  0mm 376 W/m2
09:19 19.4 °F /  -7 °C 9.9 °F /  -12.3 °C 30.35in /  1027.7hPa North 0.8mph /  1.3km/h 3mph /  4.8km/h 66% 0.00in /  0mm 390 W/m2
09:24 19.9 °F /  -6.7 °C 9.9 °F /  -12.3 °C 30.35in /  1027.7hPa North 0.5mph /  0.8km/h 3mph /  4.8km/h 64.8% 0.00in /  0mm 399 W/m2
09:29 20.2 °F /  -6.6 °C 9.5 °F /  -12.5 °C 30.35in /  1027.7hPa Calm   3mph /  4.8km/h 62.8% 0.00in /  0mm 413 W/m2
09:34 20.4 °F /  -6.4 °C 9.8 °F /  -12.3 °C 30.35in /  1027.7hPa North 0.1mph /  0.2km/h 3mph /  4.8km/h 62.9% 0.00in /  0mm 420 W/m2
09:39 20.9 °F /  -6.2 °C 10.1 °F /  -12.2 °C 30.36in /  1028hPa North 0.1mph /  0.2km/h 2mph /  3.2km/h 62.6% 0.00in /  0mm 434 W/m2
09:44 21 °F /  -6.1 °C 9.5 °F /  -12.5 °C 30.36in /  1028hPa North 0.3mph /  0.5km/h 2mph /  3.2km/h 60.3% 0.00in /  0mm 371 W/m2
09:49 20.8 °F /  -6.2 °C 8.9 °F /  -12.8 °C 30.36in /  1028hPa Calm   2mph /  3.2km/h 59.5% 0.00in /  0mm 367 W/m2
09:54 21 °F /  -6.1 °C 9.6 °F /  -12.4 °C 30.36in /  1028hPa North 0.2mph /  0.3km/h 2mph /  3.2km/h 60.8% 0.00in /  0mm 452 W/m2
09:59 21.3 °F /  -5.9 °C 9 °F /  -12.8 °C 30.36in /  1028hPa Calm   2mph /  3.2km/h 58.4% 0.00in /  0mm 445 W/m2
10:04 21.2 °F /  -6 °C 9 °F /  -12.8 °C 30.36in /  1028hPa North 0.2mph /  0.3km/h 2mph /  3.2km/h 58.7% 0.00in /  0mm 327 W/m2
10:09 21.2 °F /  -6 °C 8.6 °F /  -13 °C 30.36in /  1028hPa Calm   2mph /  3.2km/h 57.5% 0.00in /  0mm 288 W/m2
10:14 21.2 °F /  -6 °C 8.7 °F /  -12.9 °C 30.36in /  1028hPa Calm   2mph /  3.2km/h 57.9% 0.00in /  0mm 415 W/m2
10:19 21.6 °F /  -5.8 °C 9.1 °F /  -12.7 °C 30.36in /  1028hPa Calm   2mph /  3.2km/h 58% 0.00in /  0mm 464 W/m2
10:24 22.1 °F /  -5.5 °C 9.1 °F /  -12.7 °C 30.36in /  1028hPa Calm   2mph /  3.2km/h 56.8% 0.00in /  0mm 439 W/m2
Hartford County Weather
Compliments of Weather Underground - 4 mb